KAL791 RKSI-RJFF
Flight info
| Callsign | KAL791 |
|---|---|
| Flight time | 1h 18m |
| Altitude | 35000 |
| Route | OSPOT Y782 TGU Y781 BESNA Y209 IKE |
| Aircraft | A21N/M-SDE2E3FGHIJ1RWXY/LB1 |
Departure
| Time | 2026-05-07 13:24 |
|---|---|
| Airport | Incheon International Airport (RKSI) |
Arrival
| Time | 2026-05-07 14:42 |
|---|---|
| Airport | Fukuoka Airport (RJFF) |
| Time | Latitude | Longitude | Altitude | Speed | Heading |
|---|---|---|---|---|---|
| 2026-05-07 13:02 | 37.46690 | 126.43622 | 38 ft | 0 kts | 325° |
| 2026-05-07 13:10 | 37.46678 | 126.43633 | 38 ft | 4 kts | 325° |
| 2026-05-07 13:10 | 37.46656 | 126.43653 | 37 ft | 4 kts | 325° |
| 2026-05-07 13:10 | 37.46635 | 126.43674 | 36 ft | 4 kts | 314° |
| 2026-05-07 13:10 | 37.46621 | 126.43699 | 37 ft | 4 kts | 275° |
| 2026-05-07 13:11 | 37.46626 | 126.43719 | 36 ft | 3 kts | 234° |
| 2026-05-07 13:11 | 37.46639 | 126.43742 | 36 ft | 0 kts | 234° |
| 2026-05-07 13:14 | 37.46638 | 126.43740 | 36 ft | 2 kts | 234° |
| 2026-05-07 13:14 | 37.46622 | 126.43713 | 36 ft | 6 kts | 235° |
| 2026-05-07 13:14 | 37.46592 | 126.43657 | 37 ft | 8 kts | 232° |
| 2026-05-07 13:14 | 37.46537 | 126.43659 | 37 ft | 10 kts | 145° |
| 2026-05-07 13:15 | 37.46479 | 126.43709 | 38 ft | 11 kts | 145° |
| 2026-05-07 13:15 | 37.46416 | 126.43766 | 38 ft | 12 kts | 144° |
| 2026-05-07 13:15 | 37.46346 | 126.43830 | 38 ft | 13 kts | 145° |
| 2026-05-07 13:15 | 37.46269 | 126.43895 | 38 ft | 14 kts | 142° |
| 2026-05-07 13:16 | 37.46271 | 126.44008 | 37 ft | 15 kts | 56° |
| 2026-05-07 13:16 | 37.46332 | 126.44114 | 38 ft | 16 kts | 55° |
| 2026-05-07 13:16 | 37.46398 | 126.44230 | 38 ft | 16 kts | 54° |
| 2026-05-07 13:16 | 37.46464 | 126.44350 | 38 ft | 17 kts | 54° |
| 2026-05-07 13:17 | 37.46535 | 126.44476 | 38 ft | 18 kts | 60° |
| 2026-05-07 13:17 | 37.46580 | 126.44623 | 38 ft | 19 kts | 115° |
| 2026-05-07 13:17 | 37.46479 | 126.44728 | 38 ft | 19 kts | 143° |
| 2026-05-07 13:17 | 37.46358 | 126.44836 | 38 ft | 23 kts | 144° |
| 2026-05-07 13:18 | 37.46225 | 126.44955 | 36 ft | 15 kts | 145° |
| 2026-05-07 13:18 | 37.46151 | 126.45019 | 37 ft | 11 kts | 146° |
| 2026-05-07 13:18 | 37.46083 | 126.45080 | 36 ft | 13 kts | 144° |
| 2026-05-07 13:18 | 37.46009 | 126.45146 | 36 ft | 13 kts | 144° |
| 2026-05-07 13:19 | 37.45951 | 126.45198 | 38 ft | 10 kts | 144° |
| 2026-05-07 13:19 | 37.45897 | 126.45247 | 36 ft | 7 kts | 145° |
| 2026-05-07 13:19 | 37.45880 | 126.45261 | 36 ft | 3 kts | 144° |
| 2026-05-07 13:19 | 37.45866 | 126.45274 | 36 ft | 2 kts | 145° |
| 2026-05-07 13:20 | 37.45851 | 126.45287 | 38 ft | 3 kts | 145° |
| 2026-05-07 13:20 | 37.45846 | 126.45292 | 38 ft | 1 kts | 144° |
| 2026-05-07 13:20 | 37.45838 | 126.45299 | 38 ft | 2 kts | 145° |
| 2026-05-07 13:20 | 37.45825 | 126.45310 | 38 ft | 1 kts | 146° |
| 2026-05-07 13:21 | 37.45818 | 126.45316 | 38 ft | 2 kts | 146° |
| 2026-05-07 13:21 | 37.45806 | 126.45327 | 38 ft | 3 kts | 141° |
| 2026-05-07 13:21 | 37.45800 | 126.45352 | 38 ft | 4 kts | 79° |
| 2026-05-07 13:21 | 37.45813 | 126.45386 | 38 ft | 5 kts | 60° |
| 2026-05-07 13:22 | 37.45825 | 126.45431 | 38 ft | 6 kts | 85° |
| 2026-05-07 13:22 | 37.45828 | 126.45468 | 38 ft | 7 kts | 85° |
| 2026-05-07 13:22 | 37.45838 | 126.45529 | 38 ft | 8 kts | 57° |
| 2026-05-07 13:22 | 37.45871 | 126.45590 | 38 ft | 9 kts | 55° |
| 2026-05-07 13:23 | 37.45913 | 126.45648 | 36 ft | 6 kts | 0° |
| 2026-05-07 13:23 | 37.45939 | 126.45629 | 37 ft | 9 kts | 322° |
| 2026-05-07 13:23 | 37.46155 | 126.45438 | 37 ft | 73 kts | 324° |
| 2026-05-07 13:23 | 37.46763 | 126.44894 | 38 ft | 140 kts | 324° |
| 2026-05-07 13:24 | 37.47652 | 126.44106 | 388 ft | 159 kts | 323° |
| 2026-05-07 13:24 | 37.48574 | 126.43368 | 1136 ft | 156 kts | 327° |
| 2026-05-07 13:24 | 37.49478 | 126.42641 | 1884 ft | 151 kts | 327° |
| 2026-05-07 13:24 | 37.50344 | 126.41933 | 2522 ft | 147 kts | 327° |
| 2026-05-07 13:25 | 37.51199 | 126.41229 | 3036 ft | 147 kts | 327° |
| 2026-05-07 13:25 | 37.52085 | 126.40493 | 3430 ft | 159 kts | 327° |
| 2026-05-07 13:25 | 37.53049 | 126.39698 | 3772 ft | 173 kts | 327° |
| 2026-05-07 13:25 | 37.54097 | 126.38834 | 4127 ft | 187 kts | 326° |
| 2026-05-07 13:26 | 37.55217 | 126.37908 | 4490 ft | 203 kts | 326° |
| 2026-05-07 13:26 | 37.56539 | 126.37076 | 4864 ft | 222 kts | 339° |
| 2026-05-07 13:26 | 37.58082 | 126.36515 | 5281 ft | 234 kts | 342° |
| 2026-05-07 13:26 | 37.59665 | 126.35974 | 5489 ft | 236 kts | 342° |
| 2026-05-07 13:27 | 37.61233 | 126.35441 | 5516 ft | 236 kts | 345° |
| 2026-05-07 13:27 | 37.62890 | 126.35404 | 5493 ft | 242 kts | 10° |
| 2026-05-07 13:27 | 37.64416 | 126.36395 | 5492 ft | 264 kts | 40° |
| 2026-05-07 13:27 | 37.65452 | 126.38392 | 5496 ft | 280 kts | 66° |
| 2026-05-07 13:28 | 37.66075 | 126.40733 | 5502 ft | 281 kts | 70° |
| 2026-05-07 13:28 | 37.66651 | 126.43085 | 5496 ft | 281 kts | 73° |
| 2026-05-07 13:28 | 37.66819 | 126.45519 | 5486 ft | 285 kts | 98° |
| 2026-05-07 13:28 | 37.66103 | 126.47847 | 6038 ft | 287 kts | 125° |
| 2026-05-07 13:29 | 37.64753 | 126.49708 | 6721 ft | 289 kts | 139° |
| 2026-05-07 13:29 | 37.63251 | 126.51407 | 7390 ft | 291 kts | 141° |
| 2026-05-07 13:29 | 37.61747 | 126.53102 | 8259 ft | 283 kts | 141° |
| 2026-05-07 13:29 | 37.60303 | 126.54765 | 9110 ft | 280 kts | 141° |
| 2026-05-07 13:30 | 37.58888 | 126.56430 | 9732 ft | 283 kts | 141° |
| 2026-05-07 13:30 | 37.57428 | 126.58168 | 10293 ft | 286 kts | 141° |
| 2026-05-07 13:30 | 37.56002 | 126.59887 | 10854 ft | 289 kts | 141° |
| 2026-05-07 13:30 | 37.54506 | 126.61611 | 11399 ft | 292 kts | 146° |
| 2026-05-07 13:31 | 37.52905 | 126.63289 | 11732 ft | 306 kts | 146° |
| 2026-05-07 13:31 | 37.51210 | 126.65044 | 12000 ft | 325 kts | 146° |
| 2026-05-07 13:31 | 37.49414 | 126.66911 | 12241 ft | 343 kts | 146° |
| 2026-05-07 13:31 | 37.47519 | 126.68886 | 12519 ft | 363 kts | 146° |
| 2026-05-07 13:32 | 37.45512 | 126.70982 | 12791 ft | 385 kts | 146° |
| 2026-05-07 13:32 | 37.43433 | 126.73159 | 12975 ft | 401 kts | 145° |
| 2026-05-07 13:32 | 37.41253 | 126.75446 | 13151 ft | 414 kts | 146° |
| 2026-05-07 13:32 | 37.39010 | 126.77791 | 13333 ft | 425 kts | 146° |
| 2026-05-07 13:33 | 37.36704 | 126.80197 | 13574 ft | 433 kts | 146° |
| 2026-05-07 13:33 | 37.34369 | 126.82635 | 13913 ft | 437 kts | 146° |
| 2026-05-07 13:33 | 37.32022 | 126.85081 | 14284 ft | 439 kts | 146° |
| 2026-05-07 13:33 | 37.29655 | 126.87548 | 14771 ft | 442 kts | 146° |
| 2026-05-07 13:34 | 37.27277 | 126.90023 | 15368 ft | 444 kts | 147° |
| 2026-05-07 13:34 | 37.22541 | 126.94948 | 16423 ft | 446 kts | 147° |
| 2026-05-07 13:34 | 37.20149 | 126.97429 | 16880 ft | 447 kts | 148° |
| 2026-05-07 13:35 | 37.17741 | 126.99924 | 17323 ft | 449 kts | 148° |
| 2026-05-07 13:35 | 37.15336 | 127.02414 | 17847 ft | 449 kts | 148° |
| 2026-05-07 13:35 | 37.12921 | 127.04915 | 18297 ft | 450 kts | 148° |
| 2026-05-07 13:35 | 37.10499 | 127.07422 | 18623 ft | 453 kts | 149° |
| 2026-05-07 13:36 | 37.08061 | 127.09938 | 18904 ft | 456 kts | 149° |
| 2026-05-07 13:36 | 37.05590 | 127.12485 | 19192 ft | 459 kts | 149° |
| 2026-05-07 13:36 | 37.03114 | 127.15036 | 19450 ft | 462 kts | 149° |
| 2026-05-07 13:36 | 37.00655 | 127.17570 | 19732 ft | 466 kts | 149° |
| 2026-05-07 13:37 | 36.98134 | 127.20166 | 20031 ft | 469 kts | 149° |
| 2026-05-07 13:37 | 36.95603 | 127.22770 | 20305 ft | 472 kts | 149° |
| 2026-05-07 13:37 | 36.93054 | 127.25391 | 20569 ft | 476 kts | 149° |
| 2026-05-07 13:37 | 36.90488 | 127.28026 | 20856 ft | 479 kts | 149° |
| 2026-05-07 13:38 | 36.87895 | 127.30684 | 21212 ft | 483 kts | 149° |
| 2026-05-07 13:38 | 36.85281 | 127.33367 | 21582 ft | 487 kts | 149° |
| 2026-05-07 13:38 | 36.82724 | 127.36201 | 21928 ft | 496 kts | 144° |
| 2026-05-07 13:38 | 36.80143 | 127.38922 | 22225 ft | 488 kts | 154° |
| 2026-05-07 13:39 | 36.77298 | 127.41233 | 22515 ft | 488 kts | 157° |
| 2026-05-07 13:39 | 36.74398 | 127.43509 | 22806 ft | 492 kts | 157° |
| 2026-05-07 13:39 | 36.71498 | 127.45831 | 23073 ft | 496 kts | 156° |
| 2026-05-07 13:39 | 36.68637 | 127.48163 | 23297 ft | 500 kts | 155° |
| 2026-05-07 13:40 | 36.65695 | 127.50585 | 23562 ft | 502 kts | 155° |
| 2026-05-07 13:40 | 36.62800 | 127.52975 | 23903 ft | 501 kts | 155° |
| 2026-05-07 13:40 | 36.59885 | 127.55375 | 24263 ft | 499 kts | 156° |
| 2026-05-07 13:40 | 36.56989 | 127.57757 | 24629 ft | 498 kts | 156° |
| 2026-05-07 13:41 | 36.54136 | 127.60102 | 24973 ft | 497 kts | 156° |
| 2026-05-07 13:41 | 36.51260 | 127.62462 | 25335 ft | 495 kts | 156° |
| 2026-05-07 13:41 | 36.48386 | 127.64816 | 25678 ft | 494 kts | 156° |
| 2026-05-07 13:41 | 36.45518 | 127.67163 | 26087 ft | 492 kts | 156° |
| 2026-05-07 13:42 | 36.42661 | 127.69499 | 26376 ft | 491 kts | 156° |
| 2026-05-07 13:42 | 36.39810 | 127.71830 | 26692 ft | 490 kts | 156° |
| 2026-05-07 13:42 | 36.36962 | 127.74157 | 27052 ft | 488 kts | 156° |
| 2026-05-07 13:42 | 36.34123 | 127.76475 | 27406 ft | 487 kts | 156° |
| 2026-05-07 13:43 | 36.31324 | 127.78759 | 27711 ft | 486 kts | 156° |
| 2026-05-07 13:43 | 36.28504 | 127.81053 | 28010 ft | 486 kts | 156° |
| 2026-05-07 13:43 | 36.25674 | 127.83355 | 28325 ft | 485 kts | 157° |
| 2026-05-07 13:43 | 36.22852 | 127.85648 | 28624 ft | 484 kts | 157° |
| 2026-05-07 13:44 | 36.20030 | 127.87939 | 28923 ft | 483 kts | 157° |
| 2026-05-07 13:44 | 36.17212 | 127.90225 | 29168 ft | 483 kts | 156° |
| 2026-05-07 13:44 | 36.14403 | 127.92505 | 29401 ft | 483 kts | 156° |
| 2026-05-07 13:44 | 36.11621 | 127.94756 | 29668 ft | 483 kts | 156° |
| 2026-05-07 13:45 | 36.08812 | 127.97030 | 29919 ft | 484 kts | 156° |
| 2026-05-07 13:45 | 36.05981 | 127.99319 | 30110 ft | 485 kts | 156° |
| 2026-05-07 13:45 | 36.03158 | 128.01602 | 30306 ft | 484 kts | 156° |
| 2026-05-07 13:45 | 36.00338 | 128.03878 | 30557 ft | 483 kts | 157° |
| 2026-05-07 13:46 | 35.97517 | 128.06153 | 30775 ft | 483 kts | 157° |
| 2026-05-07 13:46 | 35.94730 | 128.08398 | 30925 ft | 484 kts | 157° |
| 2026-05-07 13:46 | 35.91911 | 128.10668 | 30933 ft | 483 kts | 157° |
| 2026-05-07 13:47 | 35.86256 | 128.15213 | 30904 ft | 485 kts | 156° |
| 2026-05-07 13:47 | 35.80594 | 128.19760 | 30870 ft | 485 kts | 156° |
| 2026-05-07 13:48 | 35.74978 | 128.24259 | 30881 ft | 485 kts | 156° |
| 2026-05-07 13:48 | 35.69306 | 128.28796 | 30883 ft | 485 kts | 156° |
| 2026-05-07 13:49 | 35.63642 | 128.33317 | 30878 ft | 486 kts | 156° |
| 2026-05-07 13:49 | 35.58013 | 128.37807 | 30875 ft | 484 kts | 155° |
| 2026-05-07 13:50 | 35.52356 | 128.42310 | 30887 ft | 483 kts | 156° |
| 2026-05-07 13:50 | 35.46710 | 128.46797 | 30889 ft | 483 kts | 156° |
| 2026-05-07 13:51 | 35.41058 | 128.51285 | 30886 ft | 483 kts | 156° |
| 2026-05-07 13:51 | 35.35413 | 128.55759 | 30891 ft | 483 kts | 156° |
| 2026-05-07 13:52 | 35.29795 | 128.60206 | 30880 ft | 480 kts | 155° |
| 2026-05-07 13:52 | 35.24175 | 128.64639 | 30895 ft | 480 kts | 155° |
| 2026-05-07 13:53 | 35.18555 | 128.69062 | 30892 ft | 480 kts | 155° |
| 2026-05-07 13:53 | 35.12924 | 128.73493 | 30897 ft | 480 kts | 155° |
| 2026-05-07 13:54 | 35.07296 | 128.77916 | 30903 ft | 480 kts | 155° |
| 2026-05-07 13:54 | 35.01704 | 128.82302 | 30889 ft | 480 kts | 155° |
| 2026-05-07 13:55 | 34.96078 | 128.86697 | 30895 ft | 480 kts | 155° |
| 2026-05-07 13:55 | 34.90501 | 128.91055 | 30479 ft | 477 kts | 155° |
| 2026-05-07 13:55 | 34.87700 | 128.93240 | 30199 ft | 479 kts | 155° |
| 2026-05-07 13:56 | 34.84879 | 128.95439 | 29953 ft | 480 kts | 155° |
| 2026-05-07 13:56 | 34.82068 | 128.97629 | 29387 ft | 479 kts | 155° |
| 2026-05-07 13:56 | 34.79258 | 128.99820 | 28475 ft | 478 kts | 155° |
| 2026-05-07 13:56 | 34.76458 | 129.01998 | 27543 ft | 479 kts | 155° |
| 2026-05-07 13:57 | 34.73642 | 129.04185 | 26586 ft | 480 kts | 154° |
| 2026-05-07 13:57 | 34.70824 | 129.06374 | 25657 ft | 482 kts | 154° |
| 2026-05-07 13:57 | 34.67994 | 129.08570 | 24736 ft | 481 kts | 154° |
| 2026-05-07 13:57 | 34.65193 | 129.10742 | 23946 ft | 483 kts | 154° |
| 2026-05-07 13:58 | 34.62347 | 129.12945 | 23385 ft | 486 kts | 153° |
| 2026-05-07 13:58 | 34.59480 | 129.15127 | 23065 ft | 485 kts | 154° |
| 2026-05-07 13:58 | 34.56599 | 129.17269 | 22948 ft | 484 kts | 154° |
| 2026-05-07 13:58 | 34.53724 | 129.19402 | 22910 ft | 484 kts | 154° |
| 2026-05-07 13:59 | 34.50852 | 129.21537 | 22910 ft | 484 kts | 154° |
| 2026-05-07 13:59 | 34.47896 | 129.23435 | 22896 ft | 476 kts | 163° |
| 2026-05-07 13:59 | 34.44870 | 129.24550 | 22899 ft | 444 kts | 175° |
| 2026-05-07 13:59 | 34.41910 | 129.24869 | 22896 ft | 411 kts | 187° |
| 2026-05-07 14:00 | 34.39195 | 129.24374 | 22838 ft | 381 kts | 202° |
| 2026-05-07 14:00 | 34.36798 | 129.23237 | 22690 ft | 359 kts | 210° |
| 2026-05-07 14:00 | 34.34600 | 129.21945 | 22530 ft | 343 kts | 211° |
| 2026-05-07 14:00 | 34.32511 | 129.20668 | 22353 ft | 328 kts | 212° |
| 2026-05-07 14:01 | 34.30534 | 129.19454 | 22084 ft | 318 kts | 212° |
| 2026-05-07 14:01 | 34.28578 | 129.18257 | 21600 ft | 313 kts | 212° |
| 2026-05-07 14:01 | 34.26646 | 129.17078 | 21079 ft | 309 kts | 212° |
| 2026-05-07 14:01 | 34.24729 | 129.15908 | 20573 ft | 306 kts | 212° |
| 2026-05-07 14:02 | 34.22832 | 129.14748 | 20087 ft | 302 kts | 212° |
| 2026-05-07 14:02 | 34.20963 | 129.13604 | 19616 ft | 299 kts | 212° |
| 2026-05-07 14:02 | 34.19150 | 129.12491 | 19161 ft | 295 kts | 212° |
| 2026-05-07 14:02 | 34.17323 | 129.11364 | 18690 ft | 292 kts | 212° |
| 2026-05-07 14:03 | 34.15532 | 129.10253 | 18337 ft | 285 kts | 212° |
| 2026-05-07 14:03 | 34.13805 | 129.09184 | 18107 ft | 272 kts | 212° |
| 2026-05-07 14:03 | 34.12143 | 129.08163 | 17744 ft | 265 kts | 212° |
| 2026-05-07 14:03 | 34.10512 | 129.07167 | 17265 ft | 261 kts | 212° |
| 2026-05-07 14:04 | 34.08892 | 129.06182 | 16751 ft | 259 kts | 212° |
| 2026-05-07 14:04 | 34.07286 | 129.05207 | 16255 ft | 257 kts | 213° |
| 2026-05-07 14:04 | 34.05961 | 129.03860 | 15727 ft | 248 kts | 238° |
| 2026-05-07 14:04 | 34.05364 | 129.01956 | 15277 ft | 250 kts | 264° |
| 2026-05-07 14:05 | 34.05642 | 128.99867 | 15084 ft | 260 kts | 289° |
| 2026-05-07 14:05 | 34.06750 | 128.98084 | 14940 ft | 276 kts | 314° |
| 2026-05-07 14:05 | 34.08499 | 128.97001 | 14819 ft | 294 kts | 338° |
| 2026-05-07 14:05 | 34.10589 | 128.96876 | 14696 ft | 310 kts | 3° |
| 2026-05-07 14:06 | 34.12199 | 128.97493 | 14606 ft | 320 kts | 22° |
| 2026-05-07 14:06 | 34.13988 | 128.99146 | 14489 ft | 329 kts | 47° |
| 2026-05-07 14:06 | 34.15180 | 129.01514 | 14374 ft | 331 kts | 67° |
| 2026-05-07 14:06 | 34.15983 | 129.04087 | 14267 ft | 331 kts | 71° |
| 2026-05-07 14:07 | 34.16727 | 129.06719 | 14158 ft | 330 kts | 72° |
| 2026-05-07 14:07 | 34.17458 | 129.09350 | 14035 ft | 330 kts | 72° |
| 2026-05-07 14:07 | 34.18186 | 129.11979 | 13919 ft | 329 kts | 72° |
| 2026-05-07 14:07 | 34.18903 | 129.14593 | 13798 ft | 325 kts | 72° |
| 2026-05-07 14:08 | 34.19608 | 129.17189 | 13674 ft | 324 kts | 72° |
| 2026-05-07 14:08 | 34.20308 | 129.19771 | 13554 ft | 322 kts | 72° |
| 2026-05-07 14:08 | 34.21004 | 129.22344 | 13428 ft | 322 kts | 72° |
| 2026-05-07 14:08 | 34.21692 | 129.24891 | 13300 ft | 322 kts | 73° |
| 2026-05-07 14:09 | 34.22051 | 129.27548 | 13155 ft | 320 kts | 94° |
| 2026-05-07 14:09 | 34.21631 | 129.30137 | 13023 ft | 311 kts | 117° |
| 2026-05-07 14:09 | 34.20544 | 129.32340 | 12940 ft | 302 kts | 134° |
| 2026-05-07 14:09 | 34.19212 | 129.34297 | 12942 ft | 301 kts | 136° |
| 2026-05-07 14:10 | 34.17883 | 129.36210 | 12953 ft | 300 kts | 135° |
| 2026-05-07 14:10 | 34.16558 | 129.38159 | 12965 ft | 300 kts | 135° |
| 2026-05-07 14:10 | 34.15242 | 129.40126 | 12968 ft | 300 kts | 134° |
| 2026-05-07 14:10 | 34.13939 | 129.42096 | 12970 ft | 300 kts | 134° |
| 2026-05-07 14:11 | 34.12638 | 129.44074 | 12968 ft | 301 kts | 134° |
| 2026-05-07 14:11 | 34.11334 | 129.46061 | 12967 ft | 300 kts | 134° |
| 2026-05-07 14:11 | 34.10053 | 129.48011 | 12974 ft | 300 kts | 134° |
| 2026-05-07 14:11 | 34.08754 | 129.49992 | 12975 ft | 300 kts | 134° |
| 2026-05-07 14:12 | 34.07453 | 129.51975 | 12978 ft | 300 kts | 134° |
| 2026-05-07 14:12 | 34.06159 | 129.53951 | 12977 ft | 300 kts | 134° |
| 2026-05-07 14:12 | 34.04719 | 129.55732 | 12972 ft | 293 kts | 150° |
| 2026-05-07 14:12 | 34.03026 | 129.57065 | 12977 ft | 289 kts | 155° |
| 2026-05-07 14:13 | 34.01296 | 129.58305 | 12969 ft | 289 kts | 156° |
| 2026-05-07 14:13 | 33.99571 | 129.59541 | 12972 ft | 289 kts | 155° |
| 2026-05-07 14:13 | 33.97847 | 129.60786 | 12972 ft | 289 kts | 155° |
| 2026-05-07 14:13 | 33.96123 | 129.62039 | 12976 ft | 289 kts | 155° |
| 2026-05-07 14:14 | 33.94425 | 129.63278 | 12973 ft | 289 kts | 155° |
| 2026-05-07 14:14 | 33.92703 | 129.64537 | 12975 ft | 289 kts | 155° |
| 2026-05-07 14:14 | 33.90977 | 129.65802 | 12974 ft | 289 kts | 155° |
| 2026-05-07 14:14 | 33.89256 | 129.67063 | 12970 ft | 289 kts | 155° |
| 2026-05-07 14:15 | 33.87533 | 129.68326 | 12974 ft | 289 kts | 155° |
| 2026-05-07 14:15 | 33.85809 | 129.69590 | 12975 ft | 289 kts | 155° |
| 2026-05-07 14:15 | 33.84107 | 129.70835 | 12975 ft | 290 kts | 155° |
| 2026-05-07 14:15 | 33.82385 | 129.72095 | 12975 ft | 290 kts | 155° |
| 2026-05-07 14:16 | 33.80627 | 129.73272 | 12960 ft | 284 kts | 167° |
| 2026-05-07 14:16 | 33.78745 | 129.73949 | 12945 ft | 280 kts | 172° |
| 2026-05-07 14:16 | 33.76859 | 129.74562 | 12863 ft | 280 kts | 172° |
| 2026-05-07 14:16 | 33.74982 | 129.75162 | 12753 ft | 279 kts | 172° |
| 2026-05-07 14:17 | 33.73105 | 129.75759 | 12634 ft | 279 kts | 172° |
| 2026-05-07 14:17 | 33.71234 | 129.76351 | 12510 ft | 278 kts | 172° |
| 2026-05-07 14:17 | 33.69362 | 129.76940 | 12391 ft | 278 kts | 172° |
| 2026-05-07 14:17 | 33.67512 | 129.77521 | 12270 ft | 277 kts | 172° |
| 2026-05-07 14:18 | 33.65646 | 129.78105 | 12134 ft | 277 kts | 172° |
| 2026-05-07 14:18 | 33.63783 | 129.78687 | 12015 ft | 276 kts | 172° |
| 2026-05-07 14:18 | 33.61922 | 129.79268 | 11893 ft | 276 kts | 172° |
| 2026-05-07 14:18 | 33.60060 | 129.79846 | 11776 ft | 276 kts | 172° |
| 2026-05-07 14:19 | 33.58200 | 129.80421 | 11660 ft | 276 kts | 172° |
| 2026-05-07 14:19 | 33.56334 | 129.80998 | 11543 ft | 276 kts | 172° |
| 2026-05-07 14:19 | 33.54496 | 129.81563 | 11440 ft | 275 kts | 172° |
| 2026-05-07 14:19 | 33.52643 | 129.82131 | 11329 ft | 275 kts | 172° |
| 2026-05-07 14:20 | 33.50785 | 129.82699 | 11202 ft | 275 kts | 172° |
| 2026-05-07 14:20 | 33.48932 | 129.83264 | 11081 ft | 274 kts | 172° |
| 2026-05-07 14:20 | 33.47077 | 129.83828 | 10971 ft | 274 kts | 172° |
| 2026-05-07 14:20 | 33.45226 | 129.84388 | 10850 ft | 273 kts | 172° |
| 2026-05-07 14:21 | 33.43401 | 129.84940 | 10721 ft | 273 kts | 172° |
| 2026-05-07 14:21 | 33.41656 | 129.85900 | 10596 ft | 283 kts | 147° |
| 2026-05-07 14:21 | 33.40363 | 129.87716 | 10484 ft | 293 kts | 121° |
| 2026-05-07 14:21 | 33.39793 | 129.90068 | 10369 ft | 299 kts | 94° |
| 2026-05-07 14:22 | 33.40027 | 129.92537 | 10261 ft | 300 kts | 76° |
| 2026-05-07 14:22 | 33.40594 | 129.94910 | 10169 ft | 300 kts | 72° |
| 2026-05-07 14:22 | 33.41208 | 129.97299 | 10057 ft | 300 kts | 72° |
| 2026-05-07 14:22 | 33.41821 | 129.99680 | 9957 ft | 299 kts | 72° |
| 2026-05-07 14:23 | 33.42435 | 130.02069 | 9842 ft | 298 kts | 72° |
| 2026-05-07 14:23 | 33.43045 | 130.04432 | 9711 ft | 297 kts | 72° |
| 2026-05-07 14:23 | 33.43652 | 130.06767 | 9590 ft | 296 kts | 72° |
| 2026-05-07 14:23 | 33.44266 | 130.09120 | 9475 ft | 294 kts | 72° |
| 2026-05-07 14:24 | 33.44875 | 130.11461 | 9348 ft | 294 kts | 72° |
| 2026-05-07 14:24 | 33.45539 | 130.13772 | 9212 ft | 292 kts | 61° |
| 2026-05-07 14:24 | 33.46767 | 130.15654 | 9028 ft | 285 kts | 36° |
| 2026-05-07 14:24 | 33.48477 | 130.16748 | 8581 ft | 275 kts | 10° |
| 2026-05-07 14:25 | 33.50316 | 130.17161 | 8171 ft | 271 kts | 3° |
| 2026-05-07 14:25 | 33.52178 | 130.17439 | 7772 ft | 269 kts | 2° |
| 2026-05-07 14:25 | 33.54042 | 130.17697 | 7379 ft | 269 kts | 2° |
| 2026-05-07 14:25 | 33.55898 | 130.17941 | 6997 ft | 267 kts | 2° |
| 2026-05-07 14:26 | 33.57748 | 130.18171 | 6620 ft | 266 kts | 2° |
| 2026-05-07 14:26 | 33.59583 | 130.18389 | 6234 ft | 265 kts | 2° |
| 2026-05-07 14:26 | 33.61420 | 130.18598 | 5845 ft | 264 kts | 2° |
| 2026-05-07 14:26 | 33.63248 | 130.18804 | 5460 ft | 263 kts | 2° |
| 2026-05-07 14:27 | 33.65049 | 130.19005 | 5103 ft | 262 kts | 2° |
| 2026-05-07 14:27 | 33.66867 | 130.19207 | 4967 ft | 262 kts | 2° |
| 2026-05-07 14:27 | 33.68684 | 130.19410 | 4957 ft | 262 kts | 2° |
| 2026-05-07 14:27 | 33.70490 | 130.19387 | 4956 ft | 256 kts | 342° |
| 2026-05-07 14:28 | 33.72158 | 130.18690 | 4975 ft | 253 kts | 333° |
| 2026-05-07 14:28 | 33.73782 | 130.17852 | 4987 ft | 254 kts | 332° |
| 2026-05-07 14:28 | 33.75401 | 130.17000 | 4955 ft | 254 kts | 332° |
| 2026-05-07 14:28 | 33.76999 | 130.16156 | 4873 ft | 253 kts | 332° |
| 2026-05-07 14:29 | 33.78611 | 130.15303 | 4774 ft | 253 kts | 332° |
| 2026-05-07 14:29 | 33.80226 | 130.14452 | 4683 ft | 252 kts | 332° |
| 2026-05-07 14:29 | 33.81838 | 130.13605 | 4586 ft | 252 kts | 332° |
| 2026-05-07 14:29 | 33.83451 | 130.12775 | 4479 ft | 253 kts | 337° |
| 2026-05-07 14:30 | 33.86859 | 130.13269 | 4238 ft | 266 kts | 33° |
| 2026-05-07 14:30 | 33.88150 | 130.14847 | 4125 ft | 266 kts | 57° |
| 2026-05-07 14:30 | 33.89062 | 130.16746 | 4021 ft | 265 kts | 67° |
| 2026-05-07 14:31 | 33.89448 | 130.18882 | 3900 ft | 260 kts | 95° |
| 2026-05-07 14:31 | 33.89005 | 130.20938 | 3791 ft | 252 kts | 124° |
| 2026-05-07 14:31 | 33.87859 | 130.22462 | 3678 ft | 242 kts | 152° |
| 2026-05-07 14:31 | 33.86366 | 130.23338 | 3583 ft | 237 kts | 167° |
| 2026-05-07 14:32 | 33.84774 | 130.23842 | 3485 ft | 235 kts | 171° |
| 2026-05-07 14:32 | 33.83179 | 130.24273 | 3368 ft | 234 kts | 172° |
| 2026-05-07 14:32 | 33.81588 | 130.24696 | 3262 ft | 234 kts | 172° |
| 2026-05-07 14:32 | 33.79999 | 130.25117 | 3159 ft | 233 kts | 172° |
| 2026-05-07 14:33 | 33.78436 | 130.25540 | 3038 ft | 232 kts | 171° |
| 2026-05-07 14:33 | 33.77108 | 130.25888 | 2936 ft | 234 kts | 172° |
| 2026-05-07 14:33 | 33.75523 | 130.26270 | 2824 ft | 234 kts | 172° |
| 2026-05-07 14:33 | 33.73929 | 130.26647 | 2714 ft | 234 kts | 172° |
| 2026-05-07 14:34 | 33.72325 | 130.27028 | 2595 ft | 234 kts | 172° |
| 2026-05-07 14:34 | 33.70731 | 130.27402 | 2476 ft | 233 kts | 172° |
| 2026-05-07 14:34 | 33.69073 | 130.27782 | 2366 ft | 242 kts | 172° |
| 2026-05-07 14:34 | 33.67488 | 130.28147 | 2238 ft | 228 kts | 172° |
| 2026-05-07 14:35 | 33.65984 | 130.28497 | 2100 ft | 210 kts | 172° |
| 2026-05-07 14:35 | 33.64682 | 130.29175 | 1970 ft | 200 kts | 141° |
| 2026-05-07 14:35 | 33.63990 | 130.30477 | 1970 ft | 176 kts | 114° |
| 2026-05-07 14:35 | 33.63600 | 130.31834 | 1952 ft | 170 kts | 112° |
| 2026-05-07 14:36 | 33.63223 | 130.33181 | 1981 ft | 170 kts | 112° |
| 2026-05-07 14:36 | 33.62875 | 130.34440 | 1987 ft | 152 kts | 112° |
| 2026-05-07 14:36 | 33.62546 | 130.35643 | 1975 ft | 152 kts | 113° |
| 2026-05-07 14:36 | 33.61943 | 130.36617 | 1969 ft | 145 kts | 144° |
| 2026-05-07 14:37 | 33.61091 | 130.37252 | 1976 ft | 144 kts | 157° |
| 2026-05-07 14:37 | 33.59314 | 130.38380 | 1979 ft | 144 kts | 156° |
| 2026-05-07 14:37 | 33.58443 | 130.38935 | 1951 ft | 143 kts | 156° |
| 2026-05-07 14:38 | 33.57552 | 130.39503 | 1912 ft | 144 kts | 156° |
| 2026-05-07 14:38 | 33.56690 | 130.40084 | 1861 ft | 144 kts | 153° |
| 2026-05-07 14:38 | 33.55828 | 130.40703 | 1825 ft | 144 kts | 153° |
| 2026-05-07 14:38 | 33.54970 | 130.41321 | 1775 ft | 144 kts | 153° |
| 2026-05-07 14:39 | 33.54113 | 130.41937 | 1713 ft | 144 kts | 153° |
| 2026-05-07 14:39 | 33.53256 | 130.42553 | 1559 ft | 144 kts | 152° |
| 2026-05-07 14:39 | 33.52532 | 130.43405 | 1368 ft | 147 kts | 126° |
| 2026-05-07 14:39 | 33.52191 | 130.44536 | 1175 ft | 148 kts | 100° |
| 2026-05-07 14:40 | 33.52225 | 130.45763 | 1017 ft | 147 kts | 80° |
| 2026-05-07 14:40 | 33.52753 | 130.46783 | 1077 ft | 150 kts | 35° |
| 2026-05-07 14:40 | 33.53723 | 130.47210 | 959 ft | 148 kts | 16° |
| 2026-05-07 14:40 | 33.54692 | 130.47566 | 808 ft | 144 kts | 2° |
| 2026-05-07 14:41 | 33.55604 | 130.47122 | 550 ft | 145 kts | 325° |
| 2026-05-07 14:41 | 33.56464 | 130.46536 | 305 ft | 142 kts | 330° |
| 2026-05-07 14:41 | 33.57315 | 130.45938 | 140 ft | 142 kts | 330° |
| 2026-05-07 14:41 | 33.58161 | 130.45385 | 44 ft | 132 kts | 328° |
| 2026-05-07 14:42 | 33.58854 | 130.44876 | 39 ft | 89 kts | 330° |
| 2026-05-07 14:42 | 33.59103 | 130.44684 | 33 ft | 27 kts | 309° |
| 2026-05-07 14:42 | 33.59168 | 130.44577 | 32 ft | 4 kts | 301° |
| 2026-05-07 14:42 | 33.59172 | 130.44569 | 32 ft | 0 kts | 302° |
| 2026-05-07 14:43 | 33.59180 | 130.44553 | 32 ft | 5 kts | 302° |
| 2026-05-07 14:44 | 33.59212 | 130.44493 | 33 ft | 11 kts | 302° |
| 2026-05-07 14:44 | 33.59216 | 130.44398 | 35 ft | 13 kts | 245° |
| 2026-05-07 14:44 | 33.59162 | 130.44310 | 36 ft | 14 kts | 181° |
| 2026-05-07 14:44 | 33.59071 | 130.44364 | 35 ft | 15 kts | 151° |
| 2026-05-07 14:45 | 33.58974 | 130.44428 | 36 ft | 17 kts | 151° |
| 2026-05-07 14:45 | 33.58867 | 130.44499 | 38 ft | 18 kts | 151° |
| 2026-05-07 14:45 | 33.58771 | 130.44561 | 38 ft | 13 kts | 152° |
| 2026-05-07 14:45 | 33.58695 | 130.44615 | 41 ft | 13 kts | 152° |
| 2026-05-07 14:46 | 33.58639 | 130.44635 | 41 ft | 7 kts | 208° |
| 2026-05-07 14:46 | 33.58608 | 130.44587 | 41 ft | 8 kts | 240° |
| 2026-05-07 14:46 | 33.58585 | 130.44536 | 39 ft | 6 kts | 244° |
| 2026-05-07 14:46 | 33.58573 | 130.44506 | 39 ft | 2 kts | 242° |
| 2026-05-07 14:47 | 33.58569 | 130.44498 | 39 ft | 0 kts | 242° |